createdAt,value
2023-05-02T15:14:30.275Z,16.18
2023-05-02T15:16:58.437Z,17.07
2023-05-02T15:19:26.117Z,15.82
2023-05-02T15:21:54.682Z,15.57
2023-05-02T15:24:22.290Z,16.00
2023-05-02T15:26:50.339Z,15.96
2023-05-02T15:29:17.884Z,15.83
2023-05-02T15:31:45.766Z,16.21
2023-05-02T15:34:13.830Z,16.16
2023-05-02T15:36:41.420Z,15.91
2023-05-02T15:39:09.063Z,16.32
2023-05-02T15:41:36.665Z,16.38
2023-05-02T15:44:04.490Z,17.46
2023-05-02T15:46:32.053Z,16.84
2023-05-02T15:48:59.920Z,16.43
2023-05-02T15:51:27.726Z,15.56
2023-05-02T15:53:55.775Z,16.16
2023-05-02T15:56:23.349Z,17.47
2023-05-02T15:58:51.057Z,15.27
2023-05-02T16:01:21.078Z,16.00
2023-05-02T16:03:49.217Z,15.93
2023-05-02T16:06:17.964Z,17.45
2023-05-02T16:08:45.658Z,18.31
2023-05-02T16:11:13.298Z,17.36
2023-05-02T16:13:40.931Z,17.57
2023-05-02T16:16:08.636Z,17.06
2023-05-02T16:18:36.445Z,17.04
2023-05-02T16:21:05.461Z,16.53
2023-05-02T16:23:34.226Z,17.89
2023-05-02T16:26:04.276Z,18.56
2023-05-02T16:28:32.151Z,17.58
2023-05-02T16:31:06.635Z,17.51
2023-05-02T16:33:34.198Z,17.04
2023-05-02T16:36:03.836Z,16.49
2023-05-02T16:38:32.632Z,18.24
2023-05-02T16:41:03.510Z,16.94
2023-05-02T16:43:31.190Z,17.77
2023-05-02T16:46:03.382Z,17.14
2023-05-02T16:48:32.046Z,18.68
2023-05-02T16:51:04.414Z,17.46
2023-05-02T16:53:33.338Z,17.76
2023-05-02T16:56:01.039Z,17.39
2023-05-02T16:58:29.160Z,18.13
2023-05-02T17:00:58.689Z,17.71
2023-05-02T17:03:26.914Z,17.17
2023-05-02T17:05:57.814Z,17.40
2023-05-02T17:08:25.379Z,18.50
2023-05-02T17:10:53.360Z,18.42
2023-05-02T17:13:20.980Z,19.05
2023-05-02T17:15:48.591Z,19.62
2023-05-02T17:18:16.479Z,18.66
2023-05-02T17:20:45.998Z,19.93
2023-05-02T17:23:14.617Z,20.43
2023-05-02T17:25:42.499Z,18.88
2023-05-02T17:28:10.356Z,20.43
2023-05-02T17:30:38.537Z,20.39
2023-05-02T17:33:06.395Z,21.45
2023-05-02T17:35:34.200Z,21.71
2023-05-02T17:38:01.974Z,21.42
2023-05-02T17:40:30.077Z,22.20
2023-05-02T17:42:59.279Z,20.31
2023-05-02T17:45:28.975Z,19.75
2023-05-02T17:47:57.225Z,19.42
2023-05-02T17:50:24.960Z,20.44
2023-05-02T17:52:53.192Z,20.81
2023-05-02T17:55:21.177Z,22.44
2023-05-02T17:57:49.593Z,22.62
2023-05-02T18:00:18.828Z,22.11
2023-05-02T18:02:46.546Z,23.42
2023-05-02T18:05:14.672Z,23.60
2023-05-02T18:07:42.573Z,23.50
2023-05-02T18:10:10.420Z,24.24
2023-05-02T18:12:38.339Z,25.60
2023-05-02T18:15:09.228Z,25.51
2023-05-02T18:17:37.569Z,25.11
2023-05-02T18:20:07.180Z,27.81
2023-05-02T18:22:35.666Z,24.65
2023-05-02T18:25:03.981Z,25.48
2023-05-02T18:27:32.321Z,25.04
2023-05-02T18:30:03.673Z,25.20
2023-05-02T18:32:36.056Z,26.82
2023-05-02T18:35:04.452Z,27.25
2023-05-02T18:37:32.424Z,26.02
2023-05-02T18:40:01.400Z,27.98
2023-05-02T18:42:28.995Z,29.70
2023-05-02T18:44:56.639Z,26.79
2023-05-02T18:47:24.784Z,27.14
2023-05-02T18:49:59.403Z,29.09
2023-05-02T18:52:29.702Z,28.23
2023-05-02T18:55:00.471Z,28.71
2023-05-02T18:57:28.696Z,27.31
2023-05-02T18:59:56.909Z,26.51
2023-05-02T19:02:27.262Z,27.16
2023-05-02T19:04:55.420Z,28.53
2023-05-02T19:07:23.037Z,26.81
2023-05-02T19:09:51.292Z,29.54
2023-05-02T19:12:19.137Z,30.52
2023-05-02T19:14:47.968Z,29.80
2023-05-02T19:17:15.750Z,30.64
2023-05-02T19:19:43.538Z,30.19
2023-05-02T19:22:15.000Z,28.68
2023-05-02T19:24:42.786Z,29.72
2023-05-02T19:27:10.743Z,28.62
2023-05-02T19:29:38.762Z,28.82
2023-05-02T19:32:07.247Z,26.79
2023-05-02T19:34:36.899Z,27.63
2023-05-02T19:37:04.670Z,27.37
2023-05-02T19:39:32.696Z,28.18
2023-05-02T19:42:00.535Z,28.03
2023-05-02T19:44:28.360Z,27.82
2023-05-02T19:46:56.276Z,27.70
2023-05-02T19:49:24.171Z,28.98
2023-05-02T19:51:52.044Z,28.29
2023-05-02T19:54:19.848Z,27.89
2023-05-02T19:56:48.954Z,28.55
2023-05-02T19:59:17.341Z,28.21
2023-05-02T20:01:46.808Z,29.27
2023-05-02T20:04:17.998Z,27.98
2023-05-02T20:06:45.860Z,27.51
2023-05-02T20:09:15.651Z,26.55
2023-05-02T20:11:43.371Z,29.55
2023-05-02T20:14:11.126Z,27.56
2023-05-02T20:16:38.959Z,27.33
2023-05-02T20:19:06.738Z,28.42
2023-05-02T20:21:35.022Z,27.61
2023-05-02T20:24:03.453Z,27.66
2023-05-02T20:26:33.819Z,28.77
2023-05-02T20:29:03.504Z,28.92
2023-05-02T20:31:31.488Z,29.26
2023-05-02T20:34:00.328Z,28.84
2023-05-02T20:36:29.509Z,27.97
2023-05-02T20:38:57.870Z,27.86
2023-05-02T20:41:29.343Z,26.58
2023-05-02T20:43:57.182Z,26.58
2023-05-02T20:46:24.845Z,26.68
2023-05-02T20:48:53.704Z,27.59
2023-05-02T20:51:21.629Z,28.77
2023-05-02T20:53:49.726Z,29.92
2023-05-02T20:56:17.263Z,30.55
2023-05-02T20:58:44.796Z,29.91
2023-05-02T21:01:12.559Z,29.06
2023-05-02T21:03:41.290Z,29.19
2023-05-02T21:06:09.059Z,28.75
2023-05-02T21:08:36.882Z,28.67
2023-05-02T21:11:13.616Z,27.84
2023-05-02T21:13:42.953Z,29.40
2023-05-02T21:16:17.757Z,30.04
2023-05-02T21:18:46.003Z,30.59
2023-05-02T21:21:13.926Z,29.07
2023-05-02T21:23:42.608Z,28.70
2023-05-02T21:26:10.232Z,29.33
2023-05-02T21:28:38.738Z,28.84
2023-05-02T21:31:07.873Z,28.67
2023-05-02T21:33:35.877Z,28.33
2023-05-02T21:36:03.933Z,28.37
2023-05-02T21:38:31.438Z,29.97
2023-05-02T21:41:04.165Z,27.29
2023-05-02T21:43:35.243Z,27.60
2023-05-02T21:46:02.701Z,27.63
2023-05-02T21:48:30.765Z,28.48
2023-05-02T21:50:58.369Z,28.28
2023-05-02T21:53:27.157Z,27.80
2023-05-02T21:55:54.983Z,27.38
2023-05-02T21:58:23.321Z,27.58
2023-05-02T22:00:50.855Z,28.33
2023-05-02T22:03:18.674Z,28.49
2023-05-02T22:05:48.361Z,27.64
2023-05-02T22:08:16.261Z,28.38
2023-05-02T22:10:44.216Z,28.35
2023-05-02T22:13:13.449Z,28.71
2023-05-02T22:15:47.497Z,28.73
2023-05-02T22:18:16.819Z,28.31
2023-05-02T22:20:45.562Z,28.69
2023-05-02T22:23:13.972Z,29.39
2023-05-02T22:25:44.911Z,28.73
2023-05-02T22:28:13.622Z,28.94
2023-05-02T22:30:44.964Z,28.32
2023-05-02T22:33:14.143Z,28.36
2023-05-02T22:35:42.119Z,29.66
2023-05-02T22:38:14.920Z,28.73
2023-05-02T22:40:42.472Z,29.47
2023-05-02T22:43:10.097Z,28.82
2023-05-02T22:45:38.400Z,29.82
2023-05-02T22:48:07.353Z,29.94
2023-05-02T22:50:35.017Z,29.32
2023-05-02T22:53:03.994Z,29.99
2023-05-02T22:55:31.931Z,29.52
2023-05-02T22:57:59.766Z,29.31
2023-05-02T23:00:27.429Z,28.32
2023-05-02T23:02:56.172Z,28.60
2023-05-02T23:05:23.881Z,29.43
2023-05-02T23:07:52.551Z,28.64
2023-05-02T23:10:20.287Z,28.83
2023-05-02T23:12:47.884Z,28.66
2023-05-02T23:15:15.545Z,30.32
2023-05-02T23:17:43.195Z,29.53
2023-05-02T23:20:11.056Z,28.54
2023-05-02T23:22:45.807Z,29.13
2023-05-02T23:25:14.947Z,28.89
2023-05-02T23:27:42.612Z,29.22
2023-05-02T23:30:10.557Z,28.33
2023-05-02T23:32:39.584Z,28.95
2023-05-02T23:35:11.153Z,28.98
2023-05-02T23:37:40.266Z,28.67
2023-05-02T23:40:10.987Z,30.95
2023-05-02T23:42:40.441Z,28.57
2023-05-02T23:45:09.504Z,28.35
2023-05-02T23:47:38.092Z,30.29
2023-05-02T23:50:06.436Z,29.07
2023-05-02T23:52:34.275Z,28.80
2023-05-02T23:55:02.207Z,28.54
2023-05-02T23:57:30.685Z,29.39
2023-05-02T23:59:58.210Z,28.29
